sensor_id;sensor_type;location;lat;lon;timestamp;temperature;humidity
45435;DHT22;31183;47.404;8.500;2023-02-26T00:00:08;4.00;83.80
45435;DHT22;31183;47.404;8.500;2023-02-26T00:02:38;4.10;84.20
45435;DHT22;31183;47.404;8.500;2023-02-26T00:05:05;4.20;84.00
45435;DHT22;31183;47.404;8.500;2023-02-26T00:07:33;4.20;83.70
45435;DHT22;31183;47.404;8.500;2023-02-26T00:10:00;4.20;83.90
45435;DHT22;31183;47.404;8.500;2023-02-26T00:12:30;4.20;84.40
45435;DHT22;31183;47.404;8.500;2023-02-26T00:14:57;4.10;85.00
45435;DHT22;31183;47.404;8.500;2023-02-26T00:17:33;4.20;85.10
45435;DHT22;31183;47.404;8.500;2023-02-26T00:20:03;4.20;84.70
45435;DHT22;31183;47.404;8.500;2023-02-26T00:22:30;4.10;84.90
45435;DHT22;31183;47.404;8.500;2023-02-26T00:24:57;4.10;84.90
45435;DHT22;31183;47.404;8.500;2023-02-26T00:27:23;4.00;85.30
45435;DHT22;31183;47.404;8.500;2023-02-26T00:29:50;4.00;84.70
45435;DHT22;31183;47.404;8.500;2023-02-26T00:32:17;4.00;84.10
45435;DHT22;31183;47.404;8.500;2023-02-26T00:34:45;4.10;84.60
45435;DHT22;31183;47.404;8.500;2023-02-26T00:42:42;4.00;80.60
45435;DHT22;31183;47.404;8.500;2023-02-26T00:45:13;4.00;78.90
45435;DHT22;31183;47.404;8.500;2023-02-26T00:47:46;3.90;78.70
45435;DHT22;31183;47.404;8.500;2023-02-26T00:50:21;3.80;77.40
45435;DHT22;31183;47.404;8.500;2023-02-26T00:55:28;3.80;78.10
45435;DHT22;31183;47.404;8.500;2023-02-26T00:57:55;3.90;77.30
45435;DHT22;31183;47.404;8.500;2023-02-26T01:00:21;3.90;77.90
45435;DHT22;31183;47.404;8.500;2023-02-26T01:02:48;3.80;76.30
45435;DHT22;31183;47.404;8.500;2023-02-26T01:05:16;3.80;75.90
45435;DHT22;31183;47.404;8.500;2023-02-26T01:08:21;3.70;76.40
45435;DHT22;31183;47.404;8.500;2023-02-26T01:10:40;3.70;76.40
45435;DHT22;31183;47.404;8.500;2023-02-26T01:13:07;3.70;77.10
45435;DHT22;31183;47.404;8.500;2023-02-26T01:15:33;3.70;76.50
45435;DHT22;31183;47.404;8.500;2023-02-26T01:18:13;3.70;77.10
45435;DHT22;31183;47.404;8.500;2023-02-26T01:20:53;3.80;76.70
45435;DHT22;31183;47.404;8.500;2023-02-26T01:23:25;3.80;76.60
45435;DHT22;31183;47.404;8.500;2023-02-26T01:26:01;3.90;76.30
45435;DHT22;31183;47.404;8.500;2023-02-26T01:28:29;3.80;75.80
45435;DHT22;31183;47.404;8.500;2023-02-26T01:31:00;3.80;76.20
45435;DHT22;31183;47.404;8.500;2023-02-26T01:33:37;3.80;76.50
45435;DHT22;31183;47.404;8.500;2023-02-26T01:36:20;3.70;75.70
45435;DHT22;31183;47.404;8.500;2023-02-26T01:41:50;3.70;75.80
45435;DHT22;31183;47.404;8.500;2023-02-26T01:44:34;3.60;75.00
45435;DHT22;31183;47.404;8.500;2023-02-26T01:50:19;3.50;75.50
45435;DHT22;31183;47.404;8.500;2023-02-26T01:55:22;3.60;75.40
45435;DHT22;31183;47.404;8.500;2023-02-26T01:57:51;3.50;75.40
45435;DHT22;31183;47.404;8.500;2023-02-26T02:00:18;3.30;74.90
45435;DHT22;31183;47.404;8.500;2023-02-26T02:02:45;3.30;75.50
45435;DHT22;31183;47.404;8.500;2023-02-26T02:05:30;3.40;76.30
45435;DHT22;31183;47.404;8.500;2023-02-26T02:07:59;3.40;76.30
45435;DHT22;31183;47.404;8.500;2023-02-26T02:10:26;3.40;75.70
45435;DHT22;31183;47.404;8.500;2023-02-26T02:13:06;3.30;76.30
45435;DHT22;31183;47.404;8.500;2023-02-26T02:15:45;3.40;75.00
45435;DHT22;31183;47.404;8.500;2023-02-26T02:18:16;3.40;74.10
45435;DHT22;31183;47.404;8.500;2023-02-26T02:29:43;3.40;72.40
45435;DHT22;31183;47.404;8.500;2023-02-26T02:32:17;3.40;70.70
45435;DHT22;31183;47.404;8.500;2023-02-26T02:34:50;3.40;71.50
45435;DHT22;31183;47.404;8.500;2023-02-26T02:37:38;3.30;71.40
45435;DHT22;31183;47.404;8.500;2023-02-26T02:40:12;3.30;70.50
45435;DHT22;31183;47.404;8.500;2023-02-26T02:42:48;3.30;70.90
45435;DHT22;31183;47.404;8.500;2023-02-26T02:45:31;3.20;70.10
45435;DHT22;31183;47.404;8.500;2023-02-26T02:48:15;3.10;70.60
45435;DHT22;31183;47.404;8.500;2023-02-26T02:50:47;3.10;70.50
45435;DHT22;31183;47.404;8.500;2023-02-26T02:53:33;3.10;71.30
45435;DHT22;31183;47.404;8.500;2023-02-26T02:56:06;3.10;71.20
45435;DHT22;31183;47.404;8.500;2023-02-26T02:58:41;3.10;70.90
45435;DHT22;31183;47.404;8.500;2023-02-26T03:01:13;3.10;70.30
45435;DHT22;31183;47.404;8.500;2023-02-26T03:03:48;3.10;69.70
45435;DHT22;31183;47.404;8.500;2023-02-26T03:06:16;3.00;70.20
45435;DHT22;31183;47.404;8.500;2023-02-26T03:08:44;3.00;70.20
45435;DHT22;31183;47.404;8.500;2023-02-26T03:11:11;3.00;70.20
45435;DHT22;31183;47.404;8.500;2023-02-26T03:13:38;3.00;69.50
45435;DHT22;31183;47.404;8.500;2023-02-26T03:24:15;2.80;69.70
45435;DHT22;31183;47.404;8.500;2023-02-26T03:26:47;2.80;69.20
45435;DHT22;31183;47.404;8.500;2023-02-26T03:31:58;2.70;69.20
45435;DHT22;31183;47.404;8.500;2023-02-26T03:34:32;2.60;68.40
45435;DHT22;31183;47.404;8.500;2023-02-26T03:37:06;2.60;69.90
45435;DHT22;31183;47.404;8.500;2023-02-26T03:39:40;2.70;70.10
45435;DHT22;31183;47.404;8.500;2023-02-26T03:44:56;2.50;69.70
45435;DHT22;31183;47.404;8.500;2023-02-26T03:47:24;2.50;70.50
45435;DHT22;31183;47.404;8.500;2023-02-26T03:52:27;2.50;70.40
45435;DHT22;31183;47.404;8.500;2023-02-26T03:55:00;2.60;71.20
45435;DHT22;31183;47.404;8.500;2023-02-26T03:57:29;2.50;70.80
45435;DHT22;31183;47.404;8.500;2023-02-26T03:59:56;2.40;70.00
45435;DHT22;31183;47.404;8.500;2023-02-26T04:02:30;2.30;70.90
45435;DHT22;31183;47.404;8.500;2023-02-26T04:05:04;2.30;71.40
45435;DHT22;31183;47.404;8.500;2023-02-26T04:07:32;2.30;71.70
45435;DHT22;31183;47.404;8.500;2023-02-26T04:09:58;2.30;71.00
45435;DHT22;31183;47.404;8.500;2023-02-26T04:12:26;2.30;71.60
45435;DHT22;31183;47.404;8.500;2023-02-26T04:14:55;2.40;72.10
45435;DHT22;31183;47.404;8.500;2023-02-26T04:17:22;2.40;72.20
45435;DHT22;31183;47.404;8.500;2023-02-26T04:19:49;2.50;72.00
45435;DHT22;31183;47.404;8.500;2023-02-26T04:22:15;2.40;71.90
45435;DHT22;31183;47.404;8.500;2023-02-26T04:24:42;2.40;72.70
45435;DHT22;31183;47.404;8.500;2023-02-26T04:27:09;2.30;72.50
45435;DHT22;31183;47.404;8.500;2023-02-26T04:29:35;2.30;73.20
45435;DHT22;31183;47.404;8.500;2023-02-26T04:32:03;2.10;73.20
45435;DHT22;31183;47.404;8.500;2023-02-26T04:34:30;2.10;74.40
45435;DHT22;31183;47.404;8.500;2023-02-26T04:36:56;2.10;74.60
45435;DHT22;31183;47.404;8.500;2023-02-26T04:39:23;2.20;74.30
45435;DHT22;31183;47.404;8.500;2023-02-26T04:41:50;2.00;74.10
45435;DHT22;31183;47.404;8.500;2023-02-26T04:44:16;2.10;75.10
45435;DHT22;31183;47.404;8.500;2023-02-26T04:46:43;2.10;74.60
45435;DHT22;31183;47.404;8.500;2023-02-26T04:49:09;2.00;74.50
45435;DHT22;31183;47.404;8.500;2023-02-26T04:51:36;2.00;75.30
45435;DHT22;31183;47.404;8.500;2023-02-26T04:54:03;2.10;75.00
45435;DHT22;31183;47.404;8.500;2023-02-26T04:56:29;2.00;75.70
45435;DHT22;31183;47.404;8.500;2023-02-26T04:58:57;2.10;76.10
45435;DHT22;31183;47.404;8.500;2023-02-26T05:01:24;2.20;75.70
45435;DHT22;31183;47.404;8.500;2023-02-26T05:03:50;2.10;75.00
45435;DHT22;31183;47.404;8.500;2023-02-26T05:06:17;2.20;76.00
45435;DHT22;31183;47.404;8.500;2023-02-26T05:08:44;2.30;75.40
45435;DHT22;31183;47.404;8.500;2023-02-26T05:11:10;2.20;74.90
45435;DHT22;31183;47.404;8.500;2023-02-26T05:13:37;2.20;75.70
45435;DHT22;31183;47.404;8.500;2023-02-26T05:16:05;2.20;75.30
45435;DHT22;31183;47.404;8.500;2023-02-26T05:18:32;2.20;74.90
45435;DHT22;31183;47.404;8.500;2023-02-26T05:20:59;2.20;75.30
45435;DHT22;31183;47.404;8.500;2023-02-26T05:23:26;2.20;74.70
45435;DHT22;31183;47.404;8.500;2023-02-26T05:25:54;2.20;73.30
45435;DHT22;31183;47.404;8.500;2023-02-26T05:28:23;2.20;74.40
45435;DHT22;31183;47.404;8.500;2023-02-26T05:30:50;2.20;74.40
45435;DHT22;31183;47.404;8.500;2023-02-26T05:33:17;2.30;74.30
45435;DHT22;31183;47.404;8.500;2023-02-26T05:35:44;2.30;73.90
45435;DHT22;31183;47.404;8.500;2023-02-26T05:38:12;2.30;73.50
45435;DHT22;31183;47.404;8.500;2023-02-26T05:40:38;2.30;73.70
45435;DHT22;31183;47.404;8.500;2023-02-26T05:43:05;2.40;73.20
45435;DHT22;31183;47.404;8.500;2023-02-26T05:45:31;2.40;73.30
45435;DHT22;31183;47.404;8.500;2023-02-26T05:47:58;2.30;72.30
45435;DHT22;31183;47.404;8.500;2023-02-26T05:50:25;2.20;72.70
45435;DHT22;31183;47.404;8.500;2023-02-26T05:52:52;2.30;73.50
45435;DHT22;31183;47.404;8.500;2023-02-26T05:55:19;2.30;72.40
45435;DHT22;31183;47.404;8.500;2023-02-26T05:57:45;2.40;72.90
45435;DHT22;31183;47.404;8.500;2023-02-26T06:00:13;2.40;72.40
45435;DHT22;31183;47.404;8.500;2023-02-26T06:02:40;2.30;71.50
45435;DHT22;31183;47.404;8.500;2023-02-26T06:05:08;2.20;71.80
45435;DHT22;31183;47.404;8.500;2023-02-26T06:07:35;2.20;72.60
45435;DHT22;31183;47.404;8.500;2023-02-26T06:10:02;2.20;71.60
45435;DHT22;31183;47.404;8.500;2023-02-26T06:12:29;2.00;71.30
45435;DHT22;31183;47.404;8.500;2023-02-26T06:14:55;1.70;69.80
45435;DHT22;31183;47.404;8.500;2023-02-26T06:17:22;1.60;71.10
45435;DHT22;31183;47.404;8.500;2023-02-26T06:19:48;1.60;71.50
45435;DHT22;31183;47.404;8.500;2023-02-26T06:22:15;1.50;71.20
45435;DHT22;31183;47.404;8.500;2023-02-26T06:24:41;1.50;71.40
45435;DHT22;31183;47.404;8.500;2023-02-26T06:27:08;1.50;70.90
45435;DHT22;31183;47.404;8.500;2023-02-26T06:29:34;1.50;70.60
45435;DHT22;31183;47.404;8.500;2023-02-26T06:32:04;1.40;71.00
45435;DHT22;31183;47.404;8.500;2023-02-26T06:34:31;1.30;70.70
45435;DHT22;31183;47.404;8.500;2023-02-26T06:36:58;1.40;71.20
45435;DHT22;31183;47.404;8.500;2023-02-26T06:39:24;1.40;70.70
45435;DHT22;31183;47.404;8.500;2023-02-26T06:41:51;1.20;70.60
45435;DHT22;31183;47.404;8.500;2023-02-26T06:44:18;1.20;71.60
45435;DHT22;31183;47.404;8.500;2023-02-26T06:46:44;1.20;70.70
45435;DHT22;31183;47.404;8.500;2023-02-26T06:49:11;1.20;70.60
45435;DHT22;31183;47.404;8.500;2023-02-26T06:51:37;1.30;71.20
45435;DHT22;31183;47.404;8.500;2023-02-26T06:54:05;1.30;71.50
45435;DHT22;31183;47.404;8.500;2023-02-26T06:56:32;1.40;70.70
45435;DHT22;31183;47.404;8.500;2023-02-26T06:58:58;1.50;70.50
45435;DHT22;31183;47.404;8.500;2023-02-26T07:01:25;1.50;70.20
45435;DHT22;31183;47.404;8.500;2023-02-26T07:03:52;1.50;69.70
45435;DHT22;31183;47.404;8.500;2023-02-26T07:06:19;1.50;69.40
45435;DHT22;31183;47.404;8.500;2023-02-26T07:09:03;1.30;69.40
45435;DHT22;31183;47.404;8.500;2023-02-26T07:11:30;1.40;70.50
45435;DHT22;31183;47.404;8.500;2023-02-26T07:13:56;1.40;70.10
45435;DHT22;31183;47.404;8.500;2023-02-26T07:16:23;1.40;69.60
45435;DHT22;31183;47.404;8.500;2023-02-26T07:18:50;1.40;69.70
45435;DHT22;31183;47.404;8.500;2023-02-26T07:21:17;1.20;69.40
45435;DHT22;31183;47.404;8.500;2023-02-26T07:23:43;1.10;69.10
45435;DHT22;31183;47.404;8.500;2023-02-26T07:26:10;1.00;68.50
45435;DHT22;31183;47.404;8.500;2023-02-26T07:28:36;0.80;69.30
45435;DHT22;31183;47.404;8.500;2023-02-26T07:31:03;0.80;69.80
45435;DHT22;31183;47.404;8.500;2023-02-26T07:33:30;1.00;69.60
45435;DHT22;31183;47.404;8.500;2023-02-26T07:35:57;1.00;69.40
45435;DHT22;31183;47.404;8.500;2023-02-26T07:38:24;1.20;69.80
45435;DHT22;31183;47.404;8.500;2023-02-26T07:40:54;1.30;69.80
45435;DHT22;31183;47.404;8.500;2023-02-26T07:43:21;1.40;69.00
45435;DHT22;31183;47.404;8.500;2023-02-26T07:45:51;1.70;69.40
45435;DHT22;31183;47.404;8.500;2023-02-26T07:48:19;1.80;68.50
45435;DHT22;31183;47.404;8.500;2023-02-26T07:50:46;1.90;67.80
45435;DHT22;31183;47.404;8.500;2023-02-26T07:53:12;2.10;66.90
45435;DHT22;31183;47.404;8.500;2023-02-26T07:55:39;2.50;66.90
45435;DHT22;31183;47.404;8.500;2023-02-26T07:58:06;2.80;64.70
45435;DHT22;31183;47.404;8.500;2023-02-26T08:00:32;2.90;63.60
45435;DHT22;31183;47.404;8.500;2023-02-26T08:02:59;2.90;63.60
45435;DHT22;31183;47.404;8.500;2023-02-26T08:05:25;3.10;64.00
45435;DHT22;31183;47.404;8.500;2023-02-26T08:07:55;3.30;62.70
45435;DHT22;31183;47.404;8.500;2023-02-26T08:10:22;3.30;61.70
45435;DHT22;31183;47.404;8.500;2023-02-26T08:12:49;2.80;62.50
45435;DHT22;31183;47.404;8.500;2023-02-26T08:15:15;2.50;63.80
45435;DHT22;31183;47.404;8.500;2023-02-26T08:17:42;2.30;64.40
45435;DHT22;31183;47.404;8.500;2023-02-26T08:20:09;2.70;64.60
45435;DHT22;31183;47.404;8.500;2023-02-26T08:22:36;3.10;62.80
45435;DHT22;31183;47.404;8.500;2023-02-26T08:25:03;3.60;61.50
45435;DHT22;31183;47.404;8.500;2023-02-26T08:27:29;3.80;60.20
45435;DHT22;31183;47.404;8.500;2023-02-26T08:29:56;4.50;59.50
45435;DHT22;31183;47.404;8.500;2023-02-26T08:32:23;5.00;58.50
45435;DHT22;31183;47.404;8.500;2023-02-26T08:34:49;5.50;56.50
45435;DHT22;31183;47.404;8.500;2023-02-26T08:37:16;6.10;55.90
45435;DHT22;31183;47.404;8.500;2023-02-26T08:39:43;6.50;53.60
45435;DHT22;31183;47.404;8.500;2023-02-26T08:42:09;6.20;52.40
45435;DHT22;31183;47.404;8.500;2023-02-26T08:44:37;6.20;53.50
45435;DHT22;31183;47.404;8.500;2023-02-26T08:47:04;6.20;54.30
45435;DHT22;31183;47.404;8.500;2023-02-26T08:49:30;6.80;52.60
45435;DHT22;31183;47.404;8.500;2023-02-26T08:51:57;6.30;52.60
45435;DHT22;31183;47.404;8.500;2023-02-26T08:54:24;5.70;53.90
45435;DHT22;31183;47.404;8.500;2023-02-26T08:56:51;5.90;54.10
45435;DHT22;31183;47.404;8.500;2023-02-26T08:59:23;6.10;53.20
45435;DHT22;31183;47.404;8.500;2023-02-26T09:01:50;6.50;52.30
45435;DHT22;31183;47.404;8.500;2023-02-26T09:04:17;5.10;53.50
45435;DHT22;31183;47.404;8.500;2023-02-26T09:06:44;4.20;56.70
45435;DHT22;31183;47.404;8.500;2023-02-26T09:09:10;3.70;58.00
45435;DHT22;31183;47.404;8.500;2023-02-26T09:11:37;4.20;57.90
45435;DHT22;31183;47.404;8.500;2023-02-26T09:14:04;4.80;56.80
45435;DHT22;31183;47.404;8.500;2023-02-26T09:16:31;4.70;55.80
45435;DHT22;31183;47.404;8.500;2023-02-26T09:19:00;4.30;57.00
45435;DHT22;31183;47.404;8.500;2023-02-26T09:21:27;4.00;58.70
45435;DHT22;31183;47.404;8.500;2023-02-26T09:23:53;3.70;59.30
45435;DHT22;31183;47.404;8.500;2023-02-26T09:26:20;4.50;58.70
45435;DHT22;31183;47.404;8.500;2023-02-26T09:28:46;5.70;56.20
45435;DHT22;31183;47.404;8.500;2023-02-26T09:31:13;7.00;54.00
45435;DHT22;31183;47.404;8.500;2023-02-26T09:33:40;6.60;53.10
45435;DHT22;31183;47.404;8.500;2023-02-26T09:36:07;6.10;53.50
45435;DHT22;31183;47.404;8.500;2023-02-26T09:38:33;6.10;53.90
45435;DHT22;31183;47.404;8.500;2023-02-26T09:41:08;5.90;53.90
45435;DHT22;31183;47.404;8.500;2023-02-26T09:43:48;5.50;54.80
45435;DHT22;31183;47.404;8.500;2023-02-26T09:46:50;5.80;54.70
45435;DHT22;31183;47.404;8.500;2023-02-26T09:52:15;4.00;56.70
45435;DHT22;31183;47.404;8.500;2023-02-26T09:54:50;3.60;57.90
45435;DHT22;31183;47.404;8.500;2023-02-26T09:57:29;3.20;58.40
45435;DHT22;31183;47.404;8.500;2023-02-26T09:59:57;3.50;59.00
45435;DHT22;31183;47.404;8.500;2023-02-26T10:02:46;3.50;58.90
45435;DHT22;31183;47.404;8.500;2023-02-26T10:10:44;4.10;57.30
45435;DHT22;31183;47.404;8.500;2023-02-26T10:13:43;3.80;57.50
45435;DHT22;31183;47.404;8.500;2023-02-26T10:16:26;3.90;56.80
45435;DHT22;31183;47.404;8.500;2023-02-26T10:18:55;4.20;56.80
45435;DHT22;31183;47.404;8.500;2023-02-26T10:21:43;3.60;57.40
45435;DHT22;31183;47.404;8.500;2023-02-26T10:24:20;3.30;59.20
45435;DHT22;31183;47.404;8.500;2023-02-26T10:26:56;3.60;59.80
45435;DHT22;31183;47.404;8.500;2023-02-26T10:29:31;4.20;59.40
45435;DHT22;31183;47.404;8.500;2023-02-26T10:34:56;4.30;56.20
45435;DHT22;31183;47.404;8.500;2023-02-26T10:40:01;3.40;57.90
45435;DHT22;31183;47.404;8.500;2023-02-26T10:42:45;3.20;58.00
45435;DHT22;31183;47.404;8.500;2023-02-26T10:50:31;2.40;59.90
45435;DHT22;31183;47.404;8.500;2023-02-26T10:52:58;2.70;60.60
45435;DHT22;31183;47.404;8.500;2023-02-26T10:58:14;4.10;56.50
45435;DHT22;31183;47.404;8.500;2023-02-26T11:00:42;4.50;55.40
45435;DHT22;31183;47.404;8.500;2023-02-26T11:03:20;4.30;55.80
45435;DHT22;31183;47.404;8.500;2023-02-26T11:05:47;4.80;56.80
45435;DHT22;31183;47.404;8.500;2023-02-26T11:08:25;5.10;55.40
45435;DHT22;31183;47.404;8.500;2023-02-26T11:10:53;5.20;53.90
45435;DHT22;31183;47.404;8.500;2023-02-26T11:13:25;4.70;54.10
45435;DHT22;31183;47.404;8.500;2023-02-26T11:15:54;4.20;54.20
45435;DHT22;31183;47.404;8.500;2023-02-26T11:18:31;3.40;55.50
45435;DHT22;31183;47.404;8.500;2023-02-26T11:21:04;3.20;56.40
45435;DHT22;31183;47.404;8.500;2023-02-26T11:23:32;2.90;57.80
45435;DHT22;31183;47.404;8.500;2023-02-26T11:26:04;2.80;57.70
45435;DHT22;31183;47.404;8.500;2023-02-26T11:28:35;3.10;57.40
45435;DHT22;31183;47.404;8.500;2023-02-26T11:31:09;3.50;57.50
45435;DHT22;31183;47.404;8.500;2023-02-26T11:33:44;3.70;57.10
45435;DHT22;31183;47.404;8.500;2023-02-26T11:36:19;3.90;57.20
45435;DHT22;31183;47.404;8.500;2023-02-26T11:39:00;3.70;56.00
45435;DHT22;31183;47.404;8.500;2023-02-26T11:41:27;3.70;56.40
45435;DHT22;31183;47.404;8.500;2023-02-26T11:44:02;3.70;56.60
45435;DHT22;31183;47.404;8.500;2023-02-26T11:46:30;3.40;57.20
45435;DHT22;31183;47.404;8.500;2023-02-26T11:49:01;3.10;57.20
45435;DHT22;31183;47.404;8.500;2023-02-26T11:51:28;2.80;57.60
45435;DHT22;31183;47.404;8.500;2023-02-26T11:53:57;2.60;57.50
45435;DHT22;31183;47.404;8.500;2023-02-26T11:56:33;2.70;57.70
45435;DHT22;31183;47.404;8.500;2023-02-26T11:59:06;2.80;58.30
45435;DHT22;31183;47.404;8.500;2023-02-26T12:01:35;3.00;59.10
45435;DHT22;31183;47.404;8.500;2023-02-26T12:04:03;3.00;58.40
45435;DHT22;31183;47.404;8.500;2023-02-26T12:06:30;2.90;58.60
45435;DHT22;31183;47.404;8.500;2023-02-26T12:08:57;2.80;58.70
45435;DHT22;31183;47.404;8.500;2023-02-26T12:11:42;2.60;58.80
45435;DHT22;31183;47.404;8.500;2023-02-26T12:14:39;2.60;58.10
45435;DHT22;31183;47.404;8.500;2023-02-26T12:20:36;2.90;59.00
45435;DHT22;31183;47.404;8.500;2023-02-26T12:25:58;2.80;59.30
45435;DHT22;31183;47.404;8.500;2023-02-26T12:34:15;2.80;60.40
45435;DHT22;31183;47.404;8.500;2023-02-26T12:53:24;2.30;60.10
45435;DHT22;31183;47.404;8.500;2023-02-26T13:17:43;2.30;61.20
45435;DHT22;31183;47.404;8.500;2023-02-26T13:20:18;2.20;61.70
45435;DHT22;31183;47.404;8.500;2023-02-26T13:23:10;2.20;62.50
45435;DHT22;31183;47.404;8.500;2023-02-26T13:25:49;2.40;63.40
45435;DHT22;31183;47.404;8.500;2023-02-26T13:30:52;2.30;62.60
45435;DHT22;31183;47.404;8.500;2023-02-26T13:33:24;2.30;63.20
45435;DHT22;31183;47.404;8.500;2023-02-26T13:35:54;2.20;62.90
45435;DHT22;31183;47.404;8.500;2023-02-26T13:41:18;2.30;63.30
45435;DHT22;31183;47.404;8.500;2023-02-26T13:49:08;2.20;64.00
45435;DHT22;31183;47.404;8.500;2023-02-26T13:51:48;2.30;63.80
45435;DHT22;31183;47.404;8.500;2023-02-26T14:01:53;2.30;63.50
45435;DHT22;31183;47.404;8.500;2023-02-26T14:07:09;2.10;66.90
45435;DHT22;31183;47.404;8.500;2023-02-26T14:09:54;2.00;68.90
45435;DHT22;31183;47.404;8.500;2023-02-26T14:12:39;2.10;69.10
45435;DHT22;31183;47.404;8.500;2023-02-26T14:15:30;2.10;68.50
45435;DHT22;31183;47.404;8.500;2023-02-26T14:18:05;2.00;70.20
45435;DHT22;31183;47.404;8.500;2023-02-26T14:20:34;2.10;74.60
45435;DHT22;31183;47.404;8.500;2023-02-26T14:25:38;2.10;74.40
45435;DHT22;31183;47.404;8.500;2023-02-26T14:28:31;2.10;71.70
45435;DHT22;31183;47.404;8.500;2023-02-26T14:33:58;2.00;68.70
45435;DHT22;31183;47.404;8.500;2023-02-26T14:36:41;1.90;69.90
45435;DHT22;31183;47.404;8.500;2023-02-26T14:39:26;1.80;71.20
45435;DHT22;31183;47.404;8.500;2023-02-26T14:41:58;1.70;71.80
45435;DHT22;31183;47.404;8.500;2023-02-26T14:44:28;1.70;72.00
45435;DHT22;31183;47.404;8.500;2023-02-26T14:46:56;1.80;72.20
45435;DHT22;31183;47.404;8.500;2023-02-26T14:49:31;1.80;71.70
45435;DHT22;31183;47.404;8.500;2023-02-26T14:52:12;1.60;70.40
45435;DHT22;31183;47.404;8.500;2023-02-26T14:57:26;1.50;68.00
45435;DHT22;31183;47.404;8.500;2023-02-26T15:00:17;1.60;68.50
45435;DHT22;31183;47.404;8.500;2023-02-26T15:06:30;1.70;66.80
45435;DHT22;31183;47.404;8.500;2023-02-26T15:24:00;1.80;64.60
45435;DHT22;31183;47.404;8.500;2023-02-26T15:26:35;1.80;64.90
45435;DHT22;31183;47.404;8.500;2023-02-26T15:29:05;1.80;65.20
45435;DHT22;31183;47.404;8.500;2023-02-26T15:31:35;1.90;64.60
45435;DHT22;31183;47.404;8.500;2023-02-26T15:34:03;1.90;64.80
45435;DHT22;31183;47.404;8.500;2023-02-26T15:36:30;2.00;65.30
45435;DHT22;31183;47.404;8.500;2023-02-26T15:39:01;1.90;65.30
45435;DHT22;31183;47.404;8.500;2023-02-26T15:41:32;1.90;65.90
45435;DHT22;31183;47.404;8.500;2023-02-26T15:44:07;1.90;66.00
45435;DHT22;31183;47.404;8.500;2023-02-26T15:46:43;2.00;66.00
45435;DHT22;31183;47.404;8.500;2023-02-26T15:49:22;1.90;66.80
45435;DHT22;31183;47.404;8.500;2023-02-26T15:51:51;2.00;67.30
45435;DHT22;31183;47.404;8.500;2023-02-26T15:54:21;2.00;66.60
45435;DHT22;31183;47.404;8.500;2023-02-26T15:56:49;2.00;66.20
45435;DHT22;31183;47.404;8.500;2023-02-26T15:59:20;2.00;65.90
45435;DHT22;31183;47.404;8.500;2023-02-26T16:01:48;2.00;66.30
45435;DHT22;31183;47.404;8.500;2023-02-26T16:04:18;2.00;66.60
45435;DHT22;31183;47.404;8.500;2023-02-26T16:06:47;1.90;66.90
45435;DHT22;31183;47.404;8.500;2023-02-26T16:09:30;1.90;67.50
45435;DHT22;31183;47.404;8.500;2023-02-26T16:11:58;2.00;67.70
45435;DHT22;31183;47.404;8.500;2023-02-26T16:14:33;2.10;68.30
45435;DHT22;31183;47.404;8.500;2023-02-26T16:17:04;1.90;68.60
45435;DHT22;31183;47.404;8.500;2023-02-26T16:19:39;1.80;68.90
45435;DHT22;31183;47.404;8.500;2023-02-26T16:22:21;1.70;70.00
45435;DHT22;31183;47.404;8.500;2023-02-26T16:24:59;1.80;70.00
45435;DHT22;31183;47.404;8.500;2023-02-26T16:27:28;1.70;70.20
45435;DHT22;31183;47.404;8.500;2023-02-26T16:29:58;1.70;70.30
45435;DHT22;31183;47.404;8.500;2023-02-26T16:32:28;1.70;70.40
45435;DHT22;31183;47.404;8.500;2023-02-26T16:34:57;1.60;71.10
45435;DHT22;31183;47.404;8.500;2023-02-26T16:47:57;1.60;73.90
45435;DHT22;31183;47.404;8.500;2023-02-26T16:50:26;1.50;74.60
45435;DHT22;31183;47.404;8.500;2023-02-26T16:53:06;1.40;74.70
45435;DHT22;31183;47.404;8.500;2023-02-26T16:55:35;1.20;74.60
45435;DHT22;31183;47.404;8.500;2023-02-26T16:58:05;1.10;75.30
45435;DHT22;31183;47.404;8.500;2023-02-26T17:00:34;1.10;75.20
45435;DHT22;31183;47.404;8.500;2023-02-26T17:03:16;1.10;75.70
45435;DHT22;31183;47.404;8.500;2023-02-26T17:08:19;1.10;75.70
45435;DHT22;31183;47.404;8.500;2023-02-26T17:10:48;1.10;75.60
45435;DHT22;31183;47.404;8.500;2023-02-26T17:13:19;1.10;75.90
45435;DHT22;31183;47.404;8.500;2023-02-26T17:15:50;1.10;76.00
45435;DHT22;31183;47.404;8.500;2023-02-26T17:18:20;1.00;76.40
45435;DHT22;31183;47.404;8.500;2023-02-26T17:20:46;1.00;76.70
45435;DHT22;31183;47.404;8.500;2023-02-26T17:23:15;0.90;77.30
45435;DHT22;31183;47.404;8.500;2023-02-26T17:25:45;0.90;77.90
45435;DHT22;31183;47.404;8.500;2023-02-26T17:28:20;0.90;78.00
45435;DHT22;31183;47.404;8.500;2023-02-26T17:30:47;0.90;78.30
45435;DHT22;31183;47.404;8.500;2023-02-26T17:33:14;0.80;78.30
45435;DHT22;31183;47.404;8.500;2023-02-26T17:35:41;0.80;78.30
45435;DHT22;31183;47.404;8.500;2023-02-26T17:38:09;0.80;78.80
45435;DHT22;31183;47.404;8.500;2023-02-26T17:40:39;0.80;78.90
45435;DHT22;31183;47.404;8.500;2023-02-26T17:43:06;0.90;79.10
45435;DHT22;31183;47.404;8.500;2023-02-26T17:45:35;1.00;79.00
45435;DHT22;31183;47.404;8.500;2023-02-26T17:48:02;1.00;79.00
45435;DHT22;31183;47.404;8.500;2023-02-26T17:50:37;1.10;79.00
45435;DHT22;31183;47.404;8.500;2023-02-26T17:53:05;1.20;78.90
45435;DHT22;31183;47.404;8.500;2023-02-26T17:55:33;1.10;78.90
45435;DHT22;31183;47.404;8.500;2023-02-26T17:58:18;1.10;79.20
45435;DHT22;31183;47.404;8.500;2023-02-26T18:00:47;1.10;79.40
45435;DHT22;31183;47.404;8.500;2023-02-26T18:03:19;1.20;79.40
45435;DHT22;31183;47.404;8.500;2023-02-26T18:05:46;1.20;79.50
45435;DHT22;31183;47.404;8.500;2023-02-26T18:08:28;1.10;80.00
45435;DHT22;31183;47.404;8.500;2023-02-26T18:10:56;1.00;80.50
45435;DHT22;31183;47.404;8.500;2023-02-26T18:13:24;1.00;80.70
45435;DHT22;31183;47.404;8.500;2023-02-26T18:15:51;0.90;81.20
45435;DHT22;31183;47.404;8.500;2023-02-26T18:18:19;1.00;81.60
45435;DHT22;31183;47.404;8.500;2023-02-26T18:20:46;1.00;81.10
45435;DHT22;31183;47.404;8.500;2023-02-26T18:23:13;1.10;81.00
45435;DHT22;31183;47.404;8.500;2023-02-26T18:25:44;1.10;80.80
45435;DHT22;31183;47.404;8.500;2023-02-26T18:28:22;1.10;80.80
45435;DHT22;31183;47.404;8.500;2023-02-26T18:30:50;1.20;81.00
45435;DHT22;31183;47.404;8.500;2023-02-26T18:33:18;1.20;80.80
45435;DHT22;31183;47.404;8.500;2023-02-26T18:35:47;1.30;80.60
45435;DHT22;31183;47.404;8.500;2023-02-26T18:38:17;1.20;80.70
45435;DHT22;31183;47.404;8.500;2023-02-26T18:40:44;1.20;80.40
45435;DHT22;31183;47.404;8.500;2023-02-26T18:43:11;1.20;80.40
45435;DHT22;31183;47.404;8.500;2023-02-26T18:45:43;1.20;79.80
45435;DHT22;31183;47.404;8.500;2023-02-26T18:48:12;1.20;79.40
45435;DHT22;31183;47.404;8.500;2023-02-26T18:50:38;1.20;78.20
45435;DHT22;31183;47.404;8.500;2023-02-26T18:53:05;1.20;76.80
45435;DHT22;31183;47.404;8.500;2023-02-26T18:55:32;1.10;77.20
45435;DHT22;31183;47.404;8.500;2023-02-26T18:57:58;1.20;77.30
45435;DHT22;31183;47.404;8.500;2023-02-26T19:00:25;1.20;77.00